WetterOnline ( https://www.wetteronline.de )

Wetter aktuell Ostseebad Binz

Aktuelles Wetter: Putbus/Rügen (41m)

6-stündlich | Neueste Meldungen
Ortszeit Temperatur Wetter
So, 19.01. 13:00 4.7° C bedeckt
So, 19.01. 7:00 2.4° C leicht bewölkt
So, 19.01. 1:00 3.8° C wolkig
Sa, 18.01. 19:00 4.9° C bedeckt
Sa, 18.01. 13:00 6.1° C leicht bewölkt
Sa, 18.01. 7:00 6.0° C bedeckt
Sa, 18.01. 1:00 4.9° C leichter Regen
Fr, 17.01. 19:00 5.5° C wolkenlos
Ortszeit Temperatur Wetter
So, 19.01. 16:30 4.4° C bedeckt
So, 19.01. 16:20 4.4° C bedeckt
So, 19.01. 16:10 4.6° C bedeckt
So, 19.01. 16:00 4.6° C bedeckt
So, 19.01. 15:50 4.6° C bedeckt
So, 19.01. 15:40 4.6° C bedeckt
So, 19.01. 15:30 4.8° C bewölkt
So, 19.01. 15:00 4.9° C bewölkt
Ortszeit Relative Feuchte Sichtweite
So, 19.01. 13:00 84% 30 km
So, 19.01. 7:00 94% 13 km
So, 19.01. 1:00 88% 30 km
Sa, 18.01. 19:00 76% 50 km
Sa, 18.01. 13:00 71% 50 km
Sa, 18.01. 7:00 71% >70 km
Sa, 18.01. 1:00 84% 16 km
Fr, 17.01. 19:00 80% 30 km
Ortszeit Relative Feuchte Sichtweite
So, 19.01. 16:30 87% 24 km
So, 19.01. 16:20 87% -
So, 19.01. 16:10 86% -
So, 19.01. 16:00 85% 24 km
So, 19.01. 15:50 85% -
So, 19.01. 15:40 84% -
So, 19.01. 15:30 82% 30 km
So, 19.01. 15:00 80% 35 km
Ortszeit Niederschlagsmenge Niederschlagsart
So, 19.01. 13:00 0.0 l/m2 in 6 Std. -
So, 19.01. 7:00 0.1 l/m2 in 12 Std. -
So, 19.01. 1:00 0.1 l/m2 in 6 Std. Regen
Sa, 18.01. 19:00 0.0 l/m2 in 12 Std. -
Sa, 18.01. 13:00 0.0 l/m2 in 6 Std. -
Sa, 18.01. 7:00 0.7 l/m2 in 12 Std. Regen
Sa, 18.01. 1:00 0.1 l/m2 in 6 Std. Regen
Fr, 17.01. 19:00 0.0 l/m2 in 12 Std. -
Ortszeit Niederschlagsmenge Niederschlagsart
So, 19.01. 16:30 0.0 l/m2 in 1 Std. -
So, 19.01. 16:20 keine Meldung -
So, 19.01. 16:10 keine Meldung -
So, 19.01. 16:00 0.0 l/m2 in 1 Std. -
So, 19.01. 15:50 keine Meldung -
So, 19.01. 15:40 keine Meldung -
So, 19.01. 15:30 0.0 l/m2 in 1 Std. -
So, 19.01. 15:00 0.0 l/m2 in 1 Std. -
Ortszeit Stärke Spitze Richtung
km/h Bft. km/h Grad Sektor
So, 19.01. 13:00 18 3 25 290° W
So, 19.01. 7:00 18 3 29 250° W
So, 19.01. 1:00 18 3 36 260° W
Sa, 18.01. 19:00 17 3 46 240° SW
Sa, 18.01. 13:00 25 4 43 230° SW
Sa, 18.01. 7:00 25 4 50 260° W
Sa, 18.01. 1:00 11 2 29 220° SW
Fr, 17.01. 19:00 18 3 29 180° S
Ortszeit Stärke Spitze Richtung
km/h Bft. km/h Grad Sektor
So, 19.01. 16:30 11 2 22 270° W
So, 19.01. 16:20 11 2 - 270° W
So, 19.01. 16:10 11 2 - 280° W
So, 19.01. 16:00 11 2 22 290° W
So, 19.01. 15:50 11 2 - 290° W
So, 19.01. 15:40 14 3 - 280° W
So, 19.01. 15:30 11 2 19 290° W
So, 19.01. 15:00 9 2 22 290° W
Ortszeit Untergrenze Bedeckung Gattung
total tief tief mittel hoch
So, 19.01. 13:00 360 m 8/8 8/8 - - -
So, 19.01. 7:00 120 m 3/8 3/8 - - -
So, 19.01. 1:00 390 m 6/8 6/8 - - -
Sa, 18.01. 19:00 750 m 8/8 8/8 - - -
Sa, 18.01. 13:00 630 m 8/8 1/8 - - -
Sa, 18.01. 7:00 900 m 8/8 8/8 - - -
Sa, 18.01. 1:00 390 m 7/8 8/8 - - -
Fr, 17.01. 19:00 - 0/8 0/8 - - -
Ortszeit Bedeckungsgrad in Achtel und Wolkenuntergrenze
So, 19.01. 16:30 8(300m)
So, 19.01. 16:20 8(300m)
So, 19.01. 16:10 8(300m)
So, 19.01. 16:00 8(300m)
So, 19.01. 15:50 8(300m)
So, 19.01. 15:40 8(330m)
So, 19.01. 15:30 7(390m)
So, 19.01. 15:00 7(390m)
Ortszeit Luftdruck NN (hPa) Tendenz (hPa in 3 Std.)
So, 19.01. 13:00 1032 + 2,3
So, 19.01. 7:00 1027 + 2,3
So, 19.01. 1:00 1023 + 1,6
Sa, 18.01. 19:00 1021 + 1,3
Sa, 18.01. 13:00 1018 + 0,5
Sa, 18.01. 7:00 1016 + 1,8
Sa, 18.01. 1:00 1013 0,0
Fr, 17.01. 19:00 1014 - 1,1
Ortszeit Luftdruck NN (hPa) Tendenz (hPa in 3 Std.)
So, 19.01. 16:30 1035 + 2,4
So, 19.01. 16:20 1035 keine Meldung
So, 19.01. 16:10 1035 keine Meldung
So, 19.01. 16:00 1035 + 2,4
So, 19.01. 15:50 1035 keine Meldung
So, 19.01. 15:40 1034 keine Meldung
So, 19.01. 15:30 1034 + 1,8
So, 19.01. 15:00 1034 + 1,7
Ortszeit Schneehöhe (cm)
So, 19.01. 13:00 0
So, 19.01. 7:00 0
So, 19.01. 1:00 0
Sa, 18.01. 19:00 0
Sa, 18.01. 13:00 0
Sa, 18.01. 7:00 0
Sa, 18.01. 1:00 0
Fr, 17.01. 19:00 0
Ortszeit Schneehöhe (cm)
So, 19.01. 16:30 0
So, 19.01. 16:20 0
So, 19.01. 16:10 0
So, 19.01. 16:00 0
So, 19.01. 15:50 0
So, 19.01. 15:40 0
So, 19.01. 15:30 0
So, 19.01. 15:00 0
Link zu dieser Seite / Seite empfehlen

Das Wetter in ...